Time;durP1;ratioP1;P1;durP2;ratioP2;P2;SDS_P1;SDS_P2;PMS_P1;PMS_P2;Temp;Humidity;BMP_temperature;BMP_pressure;BME280_temperature;BME280_humidity;BME280_pressure;Samples;Min_cycle;Max_cycle;Signal;HPM_P1;HPM_P2
2022/09/14 00:00:52;;;;;;;0.43;0.43;;;;;;;20.79;63.69;100179.34;5194667;28;20028;-80
2022/09/14 00:03:22;;;;;;;0.32;0.32;;;;;;;20.86;63.36;100169.91;5208935;28;20588;-80
2022/09/14 00:05:53;;;;;;;0.30;0.30;;;;;;;20.75;63.77;100174.28;5203127;28;20041;-80
2022/09/14 00:08:26;;;;;;;0.95;0.47;;;;;;;20.75;63.36;100160.94;5198863;28;20227;-80
2022/09/14 00:10:57;;;;;;;;;;;;;;;20.59;63.75;100155.94;5201407;28;20034;-80
2022/09/14 00:13:51;;;;;;;0.30;0.30;;;;;;;20.61;63.49;100150.50;5191434;28;19920;-81
2022/09/14 00:16:26;;;;;;;0.25;0.25;;;;;;;20.68;63.57;100143.72;5208743;28;20091;-80
2022/09/14 00:19:09;;;;;;;0.30;0.30;;;;;;;20.57;63.82;100133.03;5207847;28;20052;-79
2022/09/14 00:21:47;;;;;;;0.50;0.50;;;;;;;20.57;63.60;100119.72;5191795;28;20108;-80
2022/09/14 00:24:18;;;;;;;0.20;0.20;;;;;;;20.53;63.67;100123.59;5181641;28;20017;-80
2022/09/14 00:26:50;;;;;;;4.10;0.95;;;;;;;20.53;63.47;100140.44;5201883;28;20059;-79
2022/09/14 00:29:23;;;;;;;0.50;0.50;;;;;;;20.53;62.97;100131.59;5178681;28;20033;-79
2022/09/14 00:31:55;;;;;;;0.17;0.17;;;;;;;20.51;62.88;100134.38;5191173;28;20098;-79
2022/09/14 00:34:28;;;;;;;0.30;0.30;;;;;;;20.45;62.93;100129.53;5204072;28;20110;-78
2022/09/14 00:37:09;;;;;;;;;;;;;;;;;;;;;
2022/09/14 00:39:42;;;;;;;2.00;1.00;;;;;;;20.48;62.75;100125.75;5184265;28;20119;-80
2022/09/14 00:42:18;;;;;;;1.85;0.77;;;;;;;20.41;62.90;100120.09;5175975;28;20175;-80
2022/09/14 00:44:49;;;;;;;1.23;0.73;;;;;;;20.38;63.10;100123.81;5180749;28;20381;-79
2022/09/14 00:47:27;;;;;;;1.35;0.50;;;;;;;20.41;63.02;100125.41;5175248;28;20413;-79
2022/09/14 00:50:04;;;;;;;0.25;0.25;;;;;;;20.36;63.61;100122.25;5198804;28;20040;-79
2022/09/14 00:52:42;;;;;;;0.40;0.40;;;;;;;20.37;62.86;100119.44;5196550;28;20102;-79
2022/09/14 00:55:17;;;;;;;0.63;0.25;;;;;;;20.33;63.31;100112.69;5173284;28;20025;-79
2022/09/14 00:57:52;;;;;;;0.50;0.50;;;;;;;20.36;63.19;100106.25;5192228;28;20045;-79
2022/09/14 01:00:28;;;;;;;0.25;0.25;;;;;;;20.27;63.48;100107.84;5202345;28;20455;-80
2022/09/14 01:03:02;;;;;;;1.45;0.82;;;;;;;20.20;63.94;100110.13;5161610;28;20045;-79
2022/09/14 01:05:35;;;;;;;0.40;0.40;;;;;;;20.24;63.06;100121.38;5172875;28;20041;-80
2022/09/14 01:08:29;;;;;;;0.40;0.40;;;;;;;20.23;62.65;100122.34;5209414;28;20104;-80
2022/09/14 01:11:24;;;;;;;0.30;0.30;;;;;;;20.23;62.76;100127.66;5204439;28;20052;-80
2022/09/14 01:14:23;;;;;;;0.10;0.10;;;;;;;20.22;63.30;100125.97;5219871;28;20033;-80
2022/09/14 01:17:24;;;;;;;0.32;0.32;;;;;;;20.22;62.94;100131.31;5187057;28;20370;-80
2022/09/14 01:20:20;;;;;;;;;;;;;;;20.27;62.67;100134.47;5190865;28;20036;-80
2022/09/14 01:23:04;;;;;;;0.20;0.20;;;;;;;20.17;63.18;100128.16;5222544;28;19917;-80
2022/09/14 01:25:44;;;;;;;12.80;1.42;;;;;;;20.19;63.16;100129.72;5203635;28;20036;-79
2022/09/14 01:28:34;;;;;;;2.10;1.58;;;;;;;20.32;63.24;100132.28;5211818;28;20045;-80
2022/09/14 01:31:37;;;;;;;0.30;0.30;;;;;;;20.31;63.28;100122.59;5236799;28;20039;-79
2022/09/14 01:34:38;;;;;;;0.32;0.32;;;;;;;20.22;63.40;100129.50;5229088;28;20037;-80
2022/09/14 01:37:20;;;;;;;0.28;0.28;;;;;;;20.13;63.42;100120.38;5177019;28;20053;-80
2022/09/14 01:39:57;;;;;;;0.30;0.30;;;;;;;20.12;63.25;100115.19;5177200;28;20033;-80
2022/09/14 01:42:28;;;;;;;0.15;0.15;;;;;;;20.11;63.25;100116.16;5178494;28;20033;-79
2022/09/14 01:45:10;;;;;;;0.43;0.43;;;;;;;20.06;63.28;100113.84;5173611;28;20021;-79
2022/09/14 01:47:59;;;;;;;1.60;1.42;;;;;;;20.07;62.99;100112.88;5183435;28;20450;-80
2022/09/14 01:50:43;;;;;;;0.73;0.60;;;;;;;20.07;62.87;100112.03;5199961;28;20021;-79
2022/09/14 01:53:23;;;;;;;0.50;0.50;;;;;;;20.08;63.31;100111.09;5198343;28;20556;-79
2022/09/14 01:56:19;;;;;;;1.08;1.08;;;;;;;20.01;63.95;100108.03;5230607;28;20032;-79
2022/09/14 01:58:59;;;;;;;0.38;0.38;;;;;;;20.01;63.10;100108.03;5219628;28;20310;-78
2022/09/14 02:01:44;;;;;;;0.50;0.50;;;;;;;19.99;63.65;100114.44;5201430;28;20143;-78
2022/09/14 02:04:23;;;;;;;0.35;0.35;;;;;;;20.00;63.18;100111.66;5240114;28;20028;-79
2022/09/14 02:06:58;;;;;;;0.35;0.35;;;;;;;19.97;63.86;100107.41;5218354;28;20033;-79
2022/09/14 02:09:40;;;;;;;0.25;0.25;;;;;;;19.94;63.08;100102.31;5207784;28;21445;-79
2022/09/14 02:12:25;;;;;;;1.98;0.50;;;;;;;19.93;63.81;100113.09;5214936;28;20033;-80
2022/09/14 02:15:00;;;;;;;3.83;0.20;;;;;;;19.94;63.24;100102.31;5231032;28;20093;-79
2022/09/14 02:17:36;;;;;;;0.20;0.20;;;;;;;19.89;63.30;100101.84;5185437;28;20040;-79
2022/09/14 02:20:20;;;;;;;0.20;0.20;;;;;;;19.89;63.93;100103.63;5181766;28;20047;-80
2022/09/14 02:22:54;;;;;;;0.30;0.30;;;;;;;19.88;63.22;100107.25;5153725;28;20141;-80
2022/09/14 02:25:27;;;;;;;0.40;0.40;;;;;;;19.84;64.19;100100.44;5169528;28;20060;-80
2022/09/14 02:27:58;;;;;;;0.30;0.30;;;;;;;19.78;64.12;100097.31;5203202;28;20076;-80
2022/09/14 02:30:40;;;;;;;0.20;0.20;;;;;;;19.68;64.75;100090.97;5171993;28;20125;-80
2022/09/14 02:33:26;;;;;;;0.40;0.40;;;;;;;19.69;64.42;100098.00;5204441;28;20852;-80
2022/09/14 02:36:22;;;;;;;1.02;1.02;;;;;;;19.71;63.54;100090.72;5184811;28;20079;-80
2022/09/14 02:39:06;;;;;;;0.20;0.20;;;;;;;19.71;64.14;100090.72;5166504;28;20044;-80
2022/09/14 02:42:16;;;;;;;1.00;0.85;;;;;;;19.72;64.33;100089.75;5183363;28;20056;-80
2022/09/14 02:45:13;;;;;;;0.40;0.40;;;;;;;19.76;63.73;100077.06;5207936;28;20044;-80
2022/09/14 02:48:21;;;;;;;0.30;0.30;;;;;;;19.73;63.77;100075.50;5204369;28;20061;-80
2022/09/14 02:51:19;;;;;;;0.40;0.40;;;;;;;19.68;63.70;100069.69;5185096;28;20122;-80
2022/09/14 02:54:29;;;;;;;0.30;0.30;;;;;;;19.65;64.45;100064.56;5184312;28;20072;-80
2022/09/14 02:57:10;;;;;;;0.40;0.40;;;;;;;19.62;64.21;100056.84;5216270;28;20047;-81
2022/09/14 02:59:41;;;;;;;0.28;0.28;;;;;;;19.62;64.14;100054.19;5209352;28;20056;-81
2022/09/14 03:09:46;;;;;;;6.03;1.30;;;;;;;19.55;64.14;100040.50;5107785;28;20361;-80
2022/09/14 03:12:49;;;;;;;;;;;;;;;19.52;64.32;100045.19;5042680;29;20091;-80
2022/09/14 03:15:20;;;;;;;0.57;0.55;;;;;;;19.60;64.77;100043.63;5094252;28;20277;-82
2022/09/14 03:17:51;;;;;;;0.22;0.22;;;;;;;19.43;64.68;100044.06;5216830;28;20041;-81
2022/09/14 03:20:27;;;;;;;1.08;0.77;;;;;;;19.38;64.85;100040.91;5185102;28;20482;-82
2022/09/14 03:22:59;;;;;;;0.55;0.55;;;;;;;19.36;64.77;100038.38;5188416;28;20119;-81
2022/09/14 03:25:30;;;;;;;0.40;0.40;;;;;;;19.42;64.57;100043.22;5200186;28;20079;-82
2022/09/14 03:28:10;;;;;;;0.50;0.50;;;;;;;19.40;64.17;100044.31;5204885;28;20041;-82
2022/09/14 03:30:48;;;;;;;1.63;0.98;;;;;;;19.34;64.77;100042.94;5188751;28;20033;-82
2022/09/14 03:33:19;;;;;;;0.32;0.32;;;;;;;19.33;65.04;100038.59;5173603;28;20112;-81
2022/09/14 03:35:49;;;;;;;0.68;0.68;;;;;;;19.32;64.37;100031.56;5180818;28;20167;-82
2022/09/14 03:38:20;;;;;;;0.22;0.22;;;;;;;19.31;64.13;100033.41;5202206;28;20029;-82
2022/09/14 03:41:01;;;;;;;;;;;;;;;;;;;;;
2022/09/14 03:43:45;;;;;;;0.70;0.70;;;;;;;19.31;64.83;100030.75;5197169;28;20109;-81
2022/09/14 03:46:20;;;;;;;0.30;0.30;;;;;;;19.18;65.79;100024.63;5200775;28;20391;-82
2022/09/14 03:48:55;;;;;;;1.08;0.35;;;;;;;19.14;65.94;100018.69;5190985;28;20048;-82
2022/09/14 03:51:25;;;;;;;0.43;0.43;;;;;;;19.21;65.04;100026.22;5163406;28;20039;-82
2022/09/14 03:54:08;;;;;;;;;;;;;;;;;;;;;
2022/09/14 03:56:42;;;;;;;0.30;0.30;;;;;;;19.17;64.68;100018.47;5202942;28;20021;-81
2022/09/14 03:59:12;;;;;;;;;;;;;;;19.17;65.60;100013.16;5203195;28;20536;-81
2022/09/14 04:01:43;;;;;;;0.30;0.30;;;;;;;19.10;66.09;100009.25;5190628;28;19949;-81
2022/09/14 04:04:16;;;;;;;0.47;0.47;;;;;;;19.05;66.00;100014.03;5217609;28;20025;-82
2022/09/14 04:06:56;;;;;;;1.95;1.25;;;;;;;19.07;65.78;100013.94;5236112;28;20028;-81
2022/09/14 04:09:26;;;;;;;0.70;0.70;;;;;;;19.10;65.82;100011.91;5191965;28;20048;-81
2022/09/14 04:12:10;;;;;;;0.43;0.43;;;;;;;19.15;65.35;100009.75;5165152;28;20060;-81
2022/09/14 04:14:41;;;;;;;0.70;0.70;;;;;;;19.06;65.89;100015.75;5215428;28;20054;-81
2022/09/14 04:17:12;;;;;;;0.47;0.47;;;;;;;19.08;65.40;100008.50;5204616;28;20052;-81
2022/09/14 04:19:46;;;;;;;0.50;0.38;;;;;;;19.01;66.18;100012.59;5225808;28;20757;-81
2022/09/14 04:22:16;;;;;;;0.50;0.50;;;;;;;18.95;66.79;100013.06;5199081;28;20057;-81
2022/09/14 04:24:47;;;;;;;0.60;0.60;;;;;;;19.00;67.25;100008.22;5190300;28;20036;-81
2022/09/14 04:27:28;;;;;;;0.82;0.82;;;;;;;19.05;67.21;100014.03;5187237;28;20077;-81
2022/09/14 04:29:58;;;;;;;0.50;0.50;;;;;;;19.03;67.57;100013.34;5198068;28;20051;-81
2022/09/14 04:32:34;;;;;;;0.75;0.75;;;;;;;18.96;67.83;100004.94;5171310;28;20049;-81
2022/09/14 04:35:11;;;;;;;0.40;0.40;;;;;;;18.95;66.92;100010.41;5204943;28;20040;-81
2022/09/14 04:37:49;;;;;;;0.30;0.30;;;;;;;19.00;67.31;100008.22;5178075;28;20052;-82
2022/09/14 04:40:20;;;;;;;0.50;0.50;;;;;;;18.91;66.79;100007.09;5186912;28;20796;-82
2022/09/14 04:42:59;;;;;;;0.40;0.40;;;;;;;18.86;66.68;100010.06;5218423;28;20099;-82
2022/09/14 04:45:30;;;;;;;0.30;0.30;;;;;;;18.95;66.67;100007.72;5206956;28;20346;-81
2022/09/14 04:48:14;;;;;;;0.45;0.45;;;;;;;18.82;67.23;100008.59;5209493;28;20666;-82
2022/09/14 04:50:59;;;;;;;;;;;;;;;;;;;;;
2022/09/14 04:53:33;;;;;;;0.57;0.57;;;;;;;18.70;69.80;100001.53;5220385;28;20044;-80
2022/09/14 04:56:15;;;;;;;0.65;0.65;;;;;;;18.75;67.66;100004.69;5189613;28;20236;-80
2022/09/14 04:58:51;;;;;;;0.57;0.57;;;;;;;18.71;67.86;100000.56;5200617;28;20041;-80
2022/09/14 05:01:25;;;;;;;1.20;1.10;;;;;;;18.70;68.15;100004.19;5195277;28;20032;-81
2022/09/14 05:03:59;;;;;;;1.42;1.33;;;;;;;18.71;67.15;100005.88;5207182;28;20197;-81
2022/09/14 05:06:34;;;;;;;0.38;0.38;;;;;;;18.57;69.22;100001.56;5209294;28;20025;-81
2022/09/14 05:09:15;;;;;;;0.40;0.40;;;;;;;18.78;67.78;100004.47;5194441;28;20446;-81
2022/09/14 05:11:49;;;;;;;1.10;1.10;;;;;;;18.76;67.67;100002.91;5158842;28;20045;-80
2022/09/14 05:14:22;;;;;;;1.65;1.02;;;;;;;18.63;67.68;99994.97;5193825;28;20021;-80
2022/09/14 05:16:53;;;;;;;1.38;1.27;;;;;;;18.62;68.71;99995.91;5198959;28;20394;-80
2022/09/14 05:19:36;;;;;;;0.32;0.32;;;;;;;18.42;68.95;99997.34;5173486;28;20637;-81
2022/09/14 05:22:11;;;;;;;0.88;0.82;;;;;;;18.54;68.73;99999.13;5187778;28;20053;-82
2022/09/14 05:24:44;;;;;;;5.35;1.73;;;;;;;18.32;69.92;100000.66;5187983;28;20026;-82
2022/09/14 05:27:14;;;;;;;0.40;0.40;;;;;;;18.39;68.29;99991.31;5201598;28;20549;-82
2022/09/14 05:29:45;;;;;;;0.70;0.70;;;;;;;18.24;69.04;99997.72;5209053;28;20036;-82
2022/09/14 05:32:16;;;;;;;0.80;0.80;;;;;;;18.34;68.63;99997.91;5201822;28;20059;-82
2022/09/14 05:34:49;;;;;;;0.55;0.55;;;;;;;18.38;67.49;99999.38;5192372;28;20020;-82
2022/09/14 05:37:21;;;;;;;0.75;0.75;;;;;;;18.32;67.36;99991.84;5177436;28;20053;-82
2022/09/14 05:39:54;;;;;;;1.00;1.00;;;;;;;18.25;67.53;99999.41;5181614;28;20513;-82
2022/09/14 05:42:25;;;;;;;6.80;1.20;;;;;;;18.33;68.21;100001.50;5197418;28;20059;-82
2022/09/14 05:45:16;;;;;;;0.32;0.32;;;;;;;18.25;67.59;99996.75;5215077;28;20036;-82
2022/09/14 05:47:48;;;;;;;4.95;0.70;;;;;;;18.27;67.60;99993.97;5202506;28;20064;-82
2022/09/14 05:50:22;;;;;;;0.93;0.45;;;;;;;18.22;68.19;99997.78;5183372;28;20056;-82
2022/09/14 05:52:53;;;;;;;0.30;0.30;;;;;;;18.23;67.49;99996.84;5222816;28;20051;-82
2022/09/14 05:55:25;;;;;;;1.02;0.93;;;;;;;18.29;67.71;99995.56;5198512;28;20028;-82
2022/09/14 05:57:55;;;;;;;0.40;0.40;;;;;;;18.23;67.97;99996.84;5168480;28;20486;-82
2022/09/14 06:00:26;;;;;;;0.47;0.47;;;;;;;18.23;69.04;99996.00;5181132;28;20056;-82
2022/09/14 06:02:57;;;;;;;0.30;0.30;;;;;;;18.13;68.21;99998.47;5194500;28;20053;-82
2022/09/14 06:05:30;;;;;;;0.30;0.30;;;;;;;18.16;68.17;100010.69;5216560;28;20036;-83
2022/09/14 06:08:08;;;;;;;0.30;0.30;;;;;;;18.11;67.99;100003.03;5208545;28;20045;-82
2022/09/14 06:10:39;;;;;;;0.85;0.85;;;;;;;17.97;69.16;100005.81;5219305;28;20060;-83
2022/09/14 06:13:10;;;;;;;1.15;1.05;;;;;;;18.00;67.99;100010.88;5217787;28;20080;-82
2022/09/14 06:15:40;;;;;;;1.35;0.73;;;;;;;18.07;68.59;100006.84;5185239;28;20121;-82
2022/09/14 06:18:13;;;;;;;;;;;;;;;18.11;68.24;100012.78;5182130;28;20411;-82
2022/09/14 06:20:51;;;;;;;0.70;0.60;;;;;;;18.08;67.70;100011.19;5219655;28;19928;-82
2022/09/14 06:23:22;;;;;;;1.25;1.20;;;;;;;17.96;68.96;100012.91;5204349;28;20417;-81
2022/09/14 06:25:54;;;;;;;0.30;0.30;;;;;;;17.88;68.66;100005.47;5171662;28;20124;-81
2022/09/14 06:28:26;;;;;;;0.43;0.43;;;;;;;17.88;68.33;100010.78;5193627;28;20060;-82
2022/09/14 06:30:57;;;;;;;2.40;0.70;;;;;;;17.89;68.21;100001.81;5221063;28;20032;-82
2022/09/14 06:33:41;;;;;;;0.30;0.30;;;;;;;17.91;67.83;99996.44;5192633;28;20048;-82
2022/09/14 06:36:23;;;;;;;0.60;0.60;;;;;;;17.91;67.49;100007.88;5192149;28;20032;-81
2022/09/14 06:39:31;;;;;;;;;;;;;;;;;;;;;
2022/09/14 06:41:58;;;;;;;0.50;0.50;;;;;;;18.00;68.13;99998.47;5194900;28;20119;-81
2022/09/14 06:44:49;;;;;;;0.68;0.63;;;;;;;17.92;67.56;100003.44;5207644;28;20040;-81
2022/09/14 06:47:30;;;;;;;1.23;1.13;;;;;;;17.87;68.45;100000.25;5242735;28;20041;-81
2022/09/14 06:50:12;;;;;;;0.82;0.82;;;;;;;17.85;68.76;99994.22;5230017;28;20125;-80
2022/09/14 06:52:45;;;;;;;0.32;0.32;;;;;;;17.59;70.22;99995.03;5185795;28;20050;-81
2022/09/14 06:55:20;;;;;;;0.30;0.30;;;;;;;17.74;68.70;99994.94;5198248;28;20043;-80
2022/09/14 06:57:51;;;;;;;0.30;0.30;;;;;;;17.72;69.18;99995.03;5186502;28;20040;-80
2022/09/14 07:00:24;;;;;;;0.65;0.43;;;;;;;17.76;67.90;99996.53;5200760;28;20025;-80
2022/09/14 07:02:55;;;;;;;0.30;0.30;;;;;;;17.78;68.78;100001.75;5186617;28;20040;-80
2022/09/14 07:05:29;;;;;;;;;;;;;;;17.69;69.10;99997.06;5173745;28;20064;-80
2022/09/14 07:08:03;;;;;;;0.30;0.30;;;;;;;17.67;69.67;99996.31;5182646;28;19923;-79
2022/09/14 07:10:44;;;;;;;;;;;;;;;;;;;;;
2022/09/14 07:13:17;;;;;;;0.40;0.40;;;;;;;17.71;69.97;99989.84;5217494;28;20057;-79
2022/09/14 07:15:49;;;;;;;0.40;0.40;;;;;;;17.59;70.95;99992.38;5192370;28;20029;-79
2022/09/14 07:18:20;;;;;;;0.55;0.55;;;;;;;17.52;70.93;99992.91;5200525;28;20049;-80
2022/09/14 07:20:50;;;;;;;0.43;0.43;;;;;;;17.53;71.54;99994.59;5184380;28;20028;-79
2022/09/14 07:23:21;;;;;;;0.20;0.20;;;;;;;17.53;70.13;99990.16;5220931;28;20532;-80
2022/09/14 07:26:23;;;;;;;1.05;0.95;;;;;;;17.56;70.60;99994.41;5221729;28;20108;-79
2022/09/14 07:29:11;;;;;;;0.60;0.35;;;;;;;17.51;72.16;100000.00;5181586;28;20098;-80
2022/09/14 07:32:19;;;;;;;0.52;0.52;;;;;;;17.57;70.90;99994.28;5173717;28;20050;-79
2022/09/14 07:34:49;;;;;;;0.40;0.40;;;;;;;17.67;70.70;100001.63;5188487;28;20032;-80
2022/09/14 07:37:20;;;;;;;0.32;0.32;;;;;;;17.52;71.52;99988.44;5218543;28;20615;-80
2022/09/14 07:39:50;;;;;;;0.35;0.35;;;;;;;17.48;72.80;99989.59;5186478;28;20481;-79
2022/09/14 07:42:21;;;;;;;0.35;0.35;;;;;;;17.56;71.42;99987.28;5172659;28;20128;-79
2022/09/14 07:44:52;;;;;;;0.50;0.50;;;;;;;17.50;70.73;99978.91;5185541;28;20078;-79
2022/09/14 07:47:22;;;;;;;0.32;0.32;;;;;;;17.58;69.98;99989.84;5207410;28;20048;-80
2022/09/14 07:49:53;;;;;;;0.52;0.52;;;;;;;17.49;72.29;99988.66;5191760;28;20032;-80
2022/09/14 07:52:23;;;;;;;0.40;0.40;;;;;;;17.55;70.98;99979.44;5216483;28;20119;-79
2022/09/14 07:54:54;;;;;;;0.80;0.80;;;;;;;17.68;70.00;99987.41;5212827;28;20171;-79
2022/09/14 07:57:26;;;;;;;0.40;0.40;;;;;;;17.76;70.21;99982.41;5224279;28;20037;-79
2022/09/14 07:59:57;;;;;;;1.75;0.65;;;;;;;17.51;72.33;99984.09;5196324;28;20139;-79
2022/09/14 08:02:28;;;;;;;0.30;0.30;;;;;;;17.46;71.95;99988.88;5209414;28;20052;-80
2022/09/14 08:05:10;;;;;;;0.40;0.40;;;;;;;17.50;71.17;99979.75;5195159;28;20448;-79
2022/09/14 08:07:40;;;;;;;2.05;0.63;;;;;;;17.56;70.47;99978.47;5200138;28;20033;-79
2022/09/14 08:10:13;;;;;;;0.40;0.40;;;;;;;17.57;70.03;99988.13;5187513;28;20025;-79
2022/09/14 08:12:44;;;;;;;0.50;0.40;;;;;;;17.62;70.40;99976.28;5196339;28;20086;-80
2022/09/14 08:15:18;;;;;;;2.30;0.75;;;;;;;17.45;72.07;99980.06;5212145;28;20478;-80
2022/09/14 08:17:51;;;;;;;0.40;0.40;;;;;;;17.43;71.98;99987.28;5179401;28;20053;-79
2022/09/14 08:20:44;;;;;;;0.43;0.43;;;;;;;17.58;70.70;99977.41;5199496;28;20037;-79
2022/09/14 08:23:28;;;;;;;;;;;;;;;;;;;;;
2022/09/14 08:26:16;;;;;;;1.50;1.40;;;;;;;17.59;70.43;99972.97;5202602;28;20063;-79
2022/09/14 08:29:16;;;;;;;1.10;0.90;;;;;;;17.56;70.99;99974.00;5194969;28;20708;-79
2022/09/14 08:32:10;;;;;;;2.42;1.02;;;;;;;17.57;71.10;99967.75;5188582;28;20049;-80
2022/09/14 08:34:43;;;;;;;0.30;0.30;;;;;;;17.36;73.12;99969.22;5194693;28;20112;-79
2022/09/14 08:37:14;;;;;;;0.43;0.43;;;;;;;17.42;70.74;99974.97;5185722;28;20316;-79
2022/09/14 08:39:52;;;;;;;0.30;0.30;;;;;;;17.39;71.43;99969.88;5206330;28;20151;-79
2022/09/14 08:42:29;;;;;;;0.38;0.38;;;;;;;17.49;71.62;99963.94;5147016;28;20049;-80
2022/09/14 08:45:12;;;;;;;0.55;0.55;;;;;;;17.44;70.50;99974.88;5203249;28;20025;-80
2022/09/14 08:47:56;;;;;;;;;;;;;;;;;;;;;
2022/09/14 08:50:32;;;;;;;0.80;0.50;;;;;;;17.28;72.31;99983.84;5204982;28;20033;-80
2022/09/14 08:53:13;;;;;;;2.05;0.52;;;;;;;17.42;70.88;99984.72;5181235;28;20056;-80
2022/09/14 08:55:57;;;;;;;0.30;0.30;;;;;;;17.38;71.47;99984.06;5213238;28;20026;-80
2022/09/14 08:58:56;;;;;;;1.13;1.05;;;;;;;17.38;73.22;99978.78;5200440;28;20037;-80
2022/09/14 09:01:37;;;;;;;0.50;0.50;;;;;;;17.38;72.57;99985.91;5198649;28;20025;-80
2022/09/14 09:04:19;;;;;;;;;;;;;;;17.58;71.63;99982.72;5197995;28;20056;-80
2022/09/14 09:07:07;;;;;;;0.30;0.30;;;;;;;17.55;71.34;99976.78;5183833;28;19916;-80
2022/09/14 09:09:50;;;;;;;0.60;0.60;;;;;;;17.41;73.17;99985.66;5189816;28;20041;-79
2022/09/14 09:12:48;;;;;;;1.02;0.82;;;;;;;17.48;70.95;99984.28;5204733;28;20596;-79
2022/09/14 09:15:39;;;;;;;0.57;0.45;;;;;;;17.44;72.51;99988.97;5220757;28;20122;-80
2022/09/14 09:18:52;;;;;;;0.20;0.20;;;;;;;17.46;71.07;99986.22;5178067;28;20071;-80
2022/09/14 09:21:27;;;;;;;0.22;0.22;;;;;;;17.47;71.59;99987.94;5169782;28;20074;-80
2022/09/14 09:24:15;;;;;;;0.52;0.52;;;;;;;17.48;73.81;99989.59;5233936;28;20069;-80
2022/09/14 09:26:46;;;;;;;0.32;0.32;;;;;;;17.58;71.89;99995.97;5182485;28;20048;-79
2022/09/14 09:29:17;;;;;;;0.68;0.68;;;;;;;17.51;71.80;100002.66;5212753;28;20037;-80
2022/09/14 09:31:55;;;;;;;0.35;0.35;;;;;;;17.56;71.22;99997.03;5176769;28;20138;-80
2022/09/14 09:34:28;;;;;;;0.55;0.55;;;;;;;17.54;71.16;99999.81;5203111;28;20029;-80
2022/09/14 09:36:59;;;;;;;0.47;0.47;;;;;;;17.53;70.45;99998.09;5199796;28;20042;-80
2022/09/14 09:39:31;;;;;;;0.20;0.20;;;;;;;17.48;71.88;100000.22;5189796;28;20116;-80
2022/09/14 09:42:26;;;;;;;0.35;0.35;;;;;;;17.52;70.74;99992.91;5218463;28;20060;-80
2022/09/14 09:45:01;;;;;;;0.47;0.47;;;;;;;17.52;71.36;99985.81;5173149;28;20184;-80
2022/09/14 09:47:38;;;;;;;0.75;0.50;;;;;;;17.51;72.05;99984.09;5205398;28;20555;-80
2022/09/14 09:50:12;;;;;;;0.80;0.80;;;;;;;17.43;71.80;99986.41;5193231;28;20115;-80
2022/09/14 09:52:56;;;;;;;0.43;0.43;;;;;;;17.46;71.37;99991.53;5173097;28;20180;-80
2022/09/14 09:55:37;;;;;;;0.30;0.30;;;;;;;17.48;70.58;100000.22;5201967;28;20127;-79
2022/09/14 09:58:20;;;;;;;0.30;0.30;;;;;;;17.53;70.90;99998.09;5205261;28;20175;-79
2022/09/14 10:00:57;;;;;;;0.80;0.60;;;;;;;17.52;70.91;99991.09;5216244;28;20029;-80
2022/09/14 10:03:36;;;;;;;0.20;0.20;;;;;;;17.48;70.83;99984.28;5194343;28;20064;-80
2022/09/14 10:06:10;;;;;;;0.85;0.82;;;;;;;17.45;72.52;99984.53;5206019;28;20131;-80
2022/09/14 10:08:44;;;;;;;2.92;0.63;;;;;;;17.40;71.82;99983.97;5197034;28;20037;-79
2022/09/14 10:11:39;;;;;;;0.30;0.30;;;;;;;17.50;71.79;99979.75;5181483;28;20179;-79
2022/09/14 10:14:32;;;;;;;0.60;0.60;;;;;;;17.51;72.58;99978.78;5183746;28;20123;-79
2022/09/14 10:17:21;;;;;;;0.52;0.52;;;;;;;17.44;72.72;99967.75;5192474;28;20045;-80
2022/09/14 10:19:56;;;;;;;0.35;0.35;;;;;;;17.54;71.70;99961.81;5205204;28;20445;-79
2022/09/14 10:22:30;;;;;;;0.47;0.47;;;;;;;17.59;72.29;99941.97;5197692;28;20059;-79
2022/09/14 10:25:23;;;;;;;0.57;0.57;;;;;;;17.45;72.80;99926.19;5191145;28;20028;-80
2022/09/14 10:27:56;;;;;;;0.30;0.30;;;;;;;17.36;72.71;99942.72;5165727;28;20056;-79
2022/09/14 10:30:34;;;;;;;0.20;0.20;;;;;;;17.44;73.65;99949.19;5196692;28;20095;-79
2022/09/14 10:33:15;;;;;;;0.40;0.40;;;;;;;17.48;72.17;99947.16;5186360;28;20051;-79
2022/09/14 10:36:32;;;;;;;0.40;0.40;;;;;;;17.44;72.19;99951.84;5180460;28;20031;-80
2022/09/14 10:39:42;;;;;;;0.55;0.55;;;;;;;17.54;72.28;99973.28;5163640;28;20406;-80
2022/09/14 10:42:41;;;;;;;0.88;0.55;;;;;;;17.52;72.21;99972.53;5154140;28;20040;-80
2022/09/14 10:45:30;;;;;;;0.52;0.40;;;;;;;17.46;72.45;99978.28;5180379;28;20075;-79
2022/09/14 10:48:27;;;;;;;0.73;0.73;;;;;;;17.55;71.15;99972.34;5197289;28;20675;-80
2022/09/14 10:51:23;;;;;;;1.10;0.98;;;;;;;17.51;71.56;99968.19;5192946;28;20033;-80
2022/09/14 10:54:17;;;;;;;0.50;0.50;;;;;;;17.56;71.81;99950.13;5164391;28;20036;-80
2022/09/14 10:57:25;;;;;;;0.60;0.60;;;;;;;17.48;73.24;99947.16;5177272;28;20040;-80
2022/09/14 11:00:13;;;;;;;0.50;0.50;;;;;;;17.57;71.16;99946.53;5190136;28;20028;-80
2022/09/14 11:03:31;;;;;;;;;;;;;;;;;;;;;
2022/09/14 11:06:42;;;;;;;0.65;0.65;;;;;;;17.60;72.24;99951.66;5218663;28;20693;-80
2022/09/14 11:09:53;;;;;;;0.20;0.20;;;;;;;17.65;72.20;99953.97;5180820;28;20040;-80
2022/09/14 11:12:39;;;;;;;1.45;1.35;;;;;;;17.61;73.25;99942.72;5197988;28;20041;-80
2022/09/14 11:15:36;;;;;;;1.15;1.05;;;;;;;17.71;72.34;99942.09;5186800;28;20037;-80
2022/09/14 11:18:35;;;;;;;0.75;0.75;;;;;;;17.62;73.13;99949.75;5211363;28;20045;-80
2022/09/14 11:21:42;;;;;;;2.20;1.40;;;;;;;17.76;72.62;99945.28;5193900;28;20094;-80
2022/09/14 11:24:55;;;;;;;0.52;0.52;;;;;;;17.66;73.06;99944.22;5199493;28;20052;-80
2022/09/14 11:27:40;;;;;;;0.30;0.30;;;;;;;17.54;73.21;99938.81;5184633;28;20038;-80
2022/09/14 11:30:17;;;;;;;0.40;0.40;;;;;;;17.59;73.01;99933.19;5204022;28;20033;-79
2022/09/14 11:33:06;;;;;;;0.30;0.30;;;;;;;17.55;72.57;99937.84;5190983;28;20038;-79
2022/09/14 11:36:15;;;;;;;0.63;0.63;;;;;;;17.55;73.13;99945.81;5192303;28;20212;-80
2022/09/14 11:39:10;;;;;;;;;;;;;;;;;;;;;
2022/09/14 11:41:56;;;;;;;1.13;1.02;;;;;;;17.68;71.09;99942.31;5206787;28;20024;-79
2022/09/14 11:44:47;;;;;;;0.40;0.40;;;;;;;17.71;71.79;99947.41;5188108;28;20527;-79
2022/09/14 11:47:23;;;;;;;4.85;0.65;;;;;;;17.81;72.08;99944.94;5181021;28;20064;-80
2022/09/14 11:50:15;;;;;;;0.40;0.40;;;;;;;17.72;72.39;99936.69;5206230;28;20029;-80
2022/09/14 11:52:54;;;;;;;0.43;0.43;;;;;;;17.60;72.90;99930.41;5203249;28;20789;-80
2022/09/14 11:55:24;;;;;;;1.50;0.80;;;;;;;17.54;72.87;99925.56;5171890;28;20041;-79
2022/09/14 11:58:03;;;;;;;0.40;0.40;;;;;;;17.62;72.06;99931.16;5224411;28;20043;-79
2022/09/14 12:01:16;;;;;;;0.43;0.43;;;;;;;17.57;72.54;99929.78;5201440;28;20162;-79
2022/09/14 12:03:52;;;;;;;0.20;0.20;;;;;;;17.68;73.19;99937.00;5182455;28;20041;-79
2022/09/14 12:06:29;;;;;;;0.40;0.40;;;;;;;17.68;72.67;99931.69;5185541;28;20051;-79
2022/09/14 12:09:24;;;;;;;0.30;0.30;;;;;;;17.59;73.90;99933.19;5195343;28;20041;-80
2022/09/14 12:11:58;;;;;;;0.55;0.55;;;;;;;17.55;74.28;99927.25;5189436;28;20198;-79
2022/09/14 12:14:35;;;;;;;0.50;0.50;;;;;;;17.61;72.81;99926.81;5173613;28;20040;-79
2022/09/14 12:17:35;;;;;;;0.40;0.40;;;;;;;17.60;73.38;99927.78;5212270;28;20045;-79
2022/09/14 12:20:23;;;;;;;0.28;0.28;;;;;;;17.68;72.18;99923.72;5161159;28;20671;-79
2022/09/14 12:23:17;;;;;;;0.35;0.35;;;;;;;17.69;73.18;99928.09;5204193;28;20056;-80
2022/09/14 12:26:10;;;;;;;0.20;0.20;;;;;;;17.52;73.67;99938.06;5169212;28;20037;-80
2022/09/14 12:28:47;;;;;;;0.20;0.20;;;;;;;17.53;74.01;99928.28;5171161;28;20055;-80
2022/09/14 12:31:36;;;;;;;0.20;0.20;;;;;;;17.62;73.10;99948.88;5190546;28;20572;-79
2022/09/14 12:34:17;;;;;;;0.50;0.50;;;;;;;17.67;73.07;99930.00;5187113;28;20045;-80
2022/09/14 12:36:47;;;;;;;0.47;0.47;;;;;;;17.67;72.41;99925.56;5187142;28;20041;-80
2022/09/14 12:39:29;;;;;;;0.20;0.20;;;;;;;17.52;74.32;99927.44;5198772;28;20037;-80
2022/09/14 12:42:26;;;;;;;0.20;0.20;;;;;;;17.60;72.12;99908.38;5205074;28;20381;-80
2022/09/14 12:45:17;;;;;;;0.43;0.43;;;;;;;17.55;72.49;99900.72;5197553;28;20033;-80
2022/09/14 12:47:50;;;;;;;0.28;0.28;;;;;;;17.58;71.76;99913.75;5168482;28;20662;-80
2022/09/14 12:50:32;;;;;;;0.20;0.20;;;;;;;17.60;72.69;99909.19;5192393;28;20063;-80
2022/09/14 12:53:16;;;;;;;2.63;0.80;;;;;;;17.68;71.91;99887.47;5220321;28;20053;-79
2022/09/14 12:56:16;;;;;;;0.30;0.30;;;;;;;17.52;73.76;99882.38;5189493;28;20297;-79